createdAt,value
2023-05-12T09:45:03.646Z,17.50
2023-05-12T09:47:38.345Z,17.40
2023-05-12T09:50:06.991Z,17.30
2023-05-12T09:52:40.889Z,17.30
2023-05-12T09:55:12.769Z,17.30
2023-05-12T09:57:41.890Z,17.30
2023-05-12T10:00:21.143Z,17.30
2023-05-12T10:02:58.481Z,17.40
2023-05-12T10:05:25.642Z,17.50
2023-05-12T10:07:57.467Z,17.50
2023-05-12T10:10:28.644Z,17.50
2023-05-12T10:12:56.283Z,17.50
2023-05-12T10:15:25.730Z,17.60
2023-05-12T10:17:55.214Z,17.70
2023-05-12T10:20:23.099Z,17.80
2023-05-12T10:22:52.412Z,17.80
2023-05-12T10:25:19.698Z,17.90
2023-05-12T10:27:48.489Z,18.00
2023-05-12T10:30:16.109Z,18.10
2023-05-12T10:32:43.464Z,18.10
2023-05-12T10:35:12.554Z,18.10
2023-05-12T10:37:39.785Z,18.00
2023-05-12T10:40:07.785Z,18.20
2023-05-12T10:42:43.535Z,18.20
2023-05-12T10:45:18.432Z,18.20
2023-05-12T10:47:47.055Z,18.30
2023-05-12T10:50:14.217Z,18.20
2023-05-12T10:52:52.810Z,18.10
2023-05-12T10:55:31.132Z,18.00
2023-05-12T10:58:05.953Z,18.10
2023-05-12T11:00:44.840Z,18.20
2023-05-12T11:03:15.778Z,18.30
2023-05-12T11:05:44.301Z,18.10
2023-05-12T11:08:14.233Z,18.00
2023-05-12T11:10:42.521Z,17.90
2023-05-12T11:13:09.934Z,17.90
2023-05-12T11:15:40.369Z,17.90
2023-05-12T11:18:07.229Z,17.90
2023-05-12T11:20:34.142Z,17.80
2023-05-12T11:23:00.976Z,17.80
2023-05-12T11:25:31.030Z,17.70
2023-05-12T11:27:58.307Z,17.80
2023-05-12T11:30:25.283Z,17.80
2023-05-12T11:33:02.400Z,17.90
2023-05-12T11:35:32.016Z,17.90
2023-05-12T11:37:58.861Z,18.00
2023-05-12T11:40:25.838Z,18.00
2023-05-12T11:42:54.688Z,18.10
2023-05-12T11:45:31.531Z,18.20
2023-05-12T11:48:13.846Z,18.20
2023-05-12T11:50:43.233Z,18.30
2023-05-12T11:53:13.595Z,18.40
2023-05-12T11:55:53.933Z,18.50
2023-05-12T11:58:26.897Z,18.50
2023-05-12T12:00:54.389Z,18.40
2023-05-12T12:03:21.567Z,18.30
2023-05-12T12:06:02.398Z,18.30
2023-05-12T12:08:29.340Z,18.20
2023-05-12T12:10:56.194Z,18.30
2023-05-12T12:13:26.395Z,18.30
2023-05-12T12:15:53.376Z,18.30
2023-05-12T12:18:21.109Z,18.40
2023-05-12T12:20:48.697Z,18.40
2023-05-12T12:23:15.741Z,18.30
2023-05-12T12:25:43.579Z,18.20
2023-05-12T12:28:10.394Z,18.20
2023-05-12T12:30:37.472Z,18.50
2023-05-12T12:33:04.286Z,18.60
2023-05-12T12:35:31.196Z,18.50
2023-05-12T12:37:58.664Z,18.50
2023-05-12T12:40:25.466Z,18.60
2023-05-12T12:42:52.288Z,18.50
2023-05-12T12:45:20.506Z,18.60
2023-05-12T12:47:47.687Z,18.60
2023-05-12T12:50:15.059Z,18.60
2023-05-12T12:52:41.994Z,18.50
2023-05-12T12:55:09.920Z,18.50
2023-05-12T12:57:36.771Z,18.50
2023-05-12T13:00:05.622Z,18.50
2023-05-12T13:02:33.616Z,18.40
2023-05-12T13:05:06.015Z,18.50
2023-05-12T13:07:33.458Z,18.40
2023-05-12T13:10:00.396Z,18.40
2023-05-12T13:12:29.275Z,18.40
2023-05-12T13:14:56.096Z,18.50
2023-05-12T13:17:23.339Z,18.50
2023-05-12T13:19:50.275Z,18.60
2023-05-12T13:22:17.082Z,18.60
2023-05-12T13:24:44.106Z,18.60
2023-05-12T13:27:10.927Z,18.60
2023-05-12T13:29:37.790Z,18.70
2023-05-12T13:32:04.778Z,18.60
2023-05-12T13:34:31.742Z,18.60
2023-05-12T13:36:59.092Z,18.60
2023-05-12T13:39:25.873Z,18.50
2023-05-12T13:41:52.636Z,18.70
2023-05-12T13:44:19.744Z,18.70
2023-05-12T13:46:47.115Z,18.70
2023-05-12T13:49:14.319Z,18.60
2023-05-12T13:51:41.113Z,18.70
2023-05-12T13:54:07.962Z,18.80
2023-05-12T13:56:34.962Z,18.80
2023-05-12T13:59:01.798Z,18.80
2023-05-12T14:01:28.732Z,18.90
2023-05-12T14:03:55.500Z,18.90
2023-05-12T14:06:22.327Z,18.90
2023-05-12T14:08:49.421Z,18.90
2023-05-12T14:11:16.825Z,18.90
2023-05-12T14:13:43.801Z,18.90
2023-05-12T14:16:13.589Z,18.90
2023-05-12T14:18:43.208Z,19.00
2023-05-12T14:21:10.555Z,19.00
2023-05-12T14:23:37.800Z,19.10
2023-05-12T14:26:05.073Z,19.10
2023-05-12T14:28:31.997Z,19.20
2023-05-12T14:30:59.018Z,19.30
2023-05-12T14:33:25.928Z,19.20
2023-05-12T14:36:03.201Z,19.20
2023-05-12T14:38:33.749Z,19.20
2023-05-12T14:41:00.568Z,19.20
2023-05-12T14:43:27.381Z,19.20
2023-05-12T14:45:57.556Z,19.20
2023-05-12T14:48:27.679Z,19.20
2023-05-12T14:50:55.772Z,19.20
2023-05-12T14:53:23.611Z,19.10
2023-05-12T14:55:53.509Z,19.10
2023-05-12T14:58:24.220Z,19.20
2023-05-12T15:00:52.132Z,19.30
2023-05-12T15:03:21.094Z,19.30
2023-05-12T15:08:21.777Z,19.20
2023-05-12T15:10:48.914Z,19.20
2023-05-12T15:13:20.340Z,19.20
2023-05-12T15:15:47.408Z,19.10
2023-05-12T15:18:14.294Z,19.00
2023-05-12T15:20:41.220Z,19.00
2023-05-12T15:23:08.074Z,19.20
2023-05-12T15:25:37.813Z,19.20
2023-05-12T15:28:07.441Z,19.20
2023-05-12T15:30:35.725Z,19.20
2023-05-12T15:33:08.931Z,19.20
2023-05-12T15:35:35.878Z,19.20
2023-05-12T15:38:03.027Z,19.20
2023-05-12T15:40:31.101Z,19.20
2023-05-12T15:42:58.346Z,19.20
2023-05-12T15:45:25.241Z,19.20
2023-05-12T15:47:52.063Z,19.10
2023-05-12T15:50:22.460Z,19.10
2023-05-12T15:52:49.678Z,19.10
2023-05-12T15:55:16.873Z,19.10
2023-05-12T15:57:43.659Z,19.10
2023-05-12T16:00:13.763Z,19.10
2023-05-12T16:02:41.090Z,19.10
2023-05-12T16:05:09.352Z,19.20
2023-05-12T16:07:36.123Z,19.10
2023-05-12T16:10:03.597Z,19.20
2023-05-12T16:12:30.867Z,19.30
2023-05-12T16:14:57.737Z,19.20
2023-05-12T16:17:24.585Z,19.20
2023-05-12T16:19:53.531Z,19.20
2023-05-12T16:22:20.315Z,19.20
2023-05-12T16:24:49.856Z,19.20
2023-05-12T16:27:16.754Z,19.20
2023-05-12T16:29:45.700Z,19.20
2023-05-12T16:32:12.823Z,19.10
2023-05-12T16:34:39.746Z,19.10
2023-05-12T16:37:06.616Z,19.10
2023-05-12T16:39:35.894Z,19.10
2023-05-12T16:42:03.448Z,19.10
2023-05-12T16:44:30.279Z,19.10
2023-05-12T16:46:57.130Z,19.20
2023-05-12T16:49:23.980Z,19.20
2023-05-12T16:51:50.770Z,19.20
2023-05-12T16:54:18.485Z,19.10
2023-05-12T16:56:45.361Z,19.20
2023-05-12T16:59:12.266Z,19.10
2023-05-12T17:01:39.614Z,19.10
2023-05-12T17:04:11.946Z,19.00
2023-05-12T17:06:38.847Z,19.00
2023-05-12T17:09:05.698Z,19.10
2023-05-12T17:11:35.362Z,19.00
2023-05-12T17:14:02.409Z,19.00
2023-05-12T17:16:29.446Z,19.00
2023-05-12T17:21:26.571Z,18.90
2023-05-12T17:23:53.952Z,18.90
2023-05-12T17:26:21.011Z,18.80
2023-05-12T17:28:50.852Z,18.70
2023-05-12T17:31:17.690Z,18.60
2023-05-12T17:33:44.549Z,18.50
2023-05-12T17:36:14.373Z,18.50
2023-05-12T17:38:41.466Z,18.40
2023-05-12T17:41:08.438Z,18.40
2023-05-12T17:43:35.445Z,18.40
2023-05-12T17:46:04.036Z,18.40
2023-05-12T17:48:33.681Z,18.40
2023-05-12T17:51:01.383Z,18.40
2023-05-12T17:53:31.323Z,18.30
2023-05-12T17:55:58.511Z,18.20
2023-05-12T17:58:25.504Z,18.20
2023-05-12T18:00:52.456Z,18.30
2023-05-12T18:03:23.708Z,18.30
2023-05-12T18:05:52.116Z,18.40
2023-05-12T18:08:21.945Z,18.40
2023-05-12T18:10:48.938Z,18.30
2023-05-12T18:13:16.002Z,18.30
2023-05-12T18:15:42.870Z,18.30
2023-05-12T18:18:10.473Z,18.30
2023-05-12T18:20:37.417Z,18.30
2023-05-12T18:23:04.452Z,18.20
2023-05-12T18:25:31.349Z,18.20
2023-05-12T18:27:58.230Z,18.30
2023-05-12T18:30:25.070Z,18.30
2023-05-12T18:32:52.013Z,18.30
2023-05-12T18:35:19.642Z,18.20
2023-05-12T18:37:46.655Z,18.20
2023-05-12T18:40:14.945Z,18.20
2023-05-12T18:42:41.695Z,18.20
2023-05-12T18:45:08.938Z,18.20
2023-05-12T18:47:35.766Z,18.20
2023-05-12T18:50:04.175Z,18.20
2023-05-12T18:52:31.205Z,18.20
2023-05-12T18:54:58.107Z,18.20
2023-05-12T18:57:24.911Z,18.20
2023-05-12T18:59:51.705Z,18.20
2023-05-12T19:02:18.617Z,18.20
2023-05-12T19:04:45.463Z,18.10
2023-05-12T19:07:15.366Z,18.10
2023-05-12T19:09:44.358Z,18.10
2023-05-12T19:12:11.801Z,18.00
2023-05-12T19:14:39.440Z,18.00
2023-05-12T19:17:07.552Z,18.00
2023-05-12T19:19:34.772Z,17.90
2023-05-12T19:22:01.758Z,17.90
2023-05-12T19:24:29.609Z,17.90
2023-05-12T19:26:57.357Z,17.80
2023-05-12T19:29:26.957Z,17.80
2023-05-12T19:31:53.912Z,17.80
2023-05-12T19:34:21.546Z,17.70
2023-05-12T19:36:50.889Z,17.70
2023-05-12T19:39:17.647Z,17.70
2023-05-12T19:41:44.510Z,17.60
2023-05-12T19:44:11.270Z,17.60
2023-05-12T19:46:38.085Z,17.50
